Aérodrome :
LOGIN :

S'inscrire | Disclaimer

   EN    FR    IT 

 










Légende :    VFR   VFR Marginal   IFR   IFR Intensif   IFR Très Intensif
Visi : 
Plafond : 
>= 8 km
>= 3000ft
5 à 8 km
1000 à 3000 ft
1500m à 5 km
500 à 1000 ft
800 à 1500m
200 à 500 ft
< 800m
< 200 ft
Symboles :   Orages  Brouillard  Fortes neiges  Fortes précipitations  Vent > 20 kt
SIGMETs :   Divers  Orages  Givrage  Turbulence  Onde Orograph.  Cendres Volcan.






- Altitude de l'aérodrome : 616 ft
- Code IATA : PUF


LFBP - Pau

DERNIER METAR :
  • 051130Z AUTO 24007KT 9999 FEW074 SCT090 BKN120 08/04 Q0997 TEMPO 4000 SHRA BKN008 FEW025CB BKN030TCU

METARs EXPIRÉS :
  • 051100Z AUTO 00000KT 9999 FEW039 SCT240 07/05 Q0998 TEMPO 4000 SHRA BKN008 FEW025CB BKN030TCU
  • 051030Z AUTO 16004KT 9999 SCT039 BKN068 BKN080 06/04 Q0998 TEMPO 4000 SHRA BKN008 FEW025CB BKN030TCU
  • 051000Z AUTO 16003KT 120V210 9999 FEW041 BKN047 BKN056 05/04 Q0998 TEMPO 4000 SHRA BKN008 FEW025CB BKN030TCU
  • 050930Z AUTO 15003KT 100V180 9999 FEW006/// SCT042/// BKN049/// ///TCU 05/04 Q0998 TEMPO 4000 SHRA BKN008 FEW025CB BKN030TCU
  • 050900Z AUTO 13003KT 9999 -RA FEW005/// BKN036/// OVC042/// ///TCU 04/04 Q0998 TEMPO 4000 SHRA BKN008 FEW025CB BKN030TCU

TAF TAF LFBP
Valide du 05 à 12h jusqu'au 06 à 12h UTC


051100Z 0512/0612 16005KT 9999 FEW040 SCT070
PROB40
TEMPO 0512/0515 26015G25KT 4000 SHRA FEW025CB BKN030TCU
PROB40
TEMPO 0515/0612 26015G25KT 3000 SHRA BKN012 FEW020CB BKN025TCU
PROB30
TEMPO 0516/0518 25020G35KT 1000 +SHRA BKN015CB



MET'MAP, la Météo Aéronautique d'un coup d'oeil ! - Copyright ORBIFLY Décembre 2007 - Disclaimer

ORBIFLY MET'MAP TEAM :

Programmation & Développement : Alexandra Zaïnal
Sur une idée originale de : Baudouin d'Aumeries
Assistance à la programmation : Marc-Olivier Méhu
Soutien technique & logistique : Manuel Goepfert

Contact : metmap@orbifly.com




SOURCES & CREDITS :

   NOAA